Time;durP1;ratioP1;P1;durP2;ratioP2;P2;SDS_P1;SDS_P2;PMS_P1;PMS_P2;Temp;Humidity;BMP_temperature;BMP_pressure;BME280_temperature;BME280_humidity;BME280_pressure;Samples;Min_cycle;Max_cycle;Signal;HPM_P1;HPM_P2
2021/04/20 00:01:04;;;;;;;6.67;6.08;;;;;;;16.29;71.02;99481.78;1783730;79;21163;-71
2021/04/20 00:03:36;;;;;;;5.78;5.28;;;;;;;16.36;70.81;99479.09;1782784;79;21394;-73
2021/04/20 00:06:06;;;;;;;5.87;5.28;;;;;;;16.37;70.74;99482.59;1782352;79;21128;-73
2021/04/20 00:08:36;;;;;;;6.28;5.67;;;;;;;16.32;70.75;99469.80;1785350;79;21227;-72
2021/04/20 00:11:06;;;;;;;6.03;5.42;;;;;;;16.27;70.75;99471.80;1788799;79;21122;-72
2021/04/20 00:13:34;;;;;;;5.83;5.17;;;;;;;16.22;70.77;99472.94;1775354;79;21210;-73
2021/04/20 00:16:02;;;;;;;5.35;4.90;;;;;;;16.21;70.81;99475.85;1797476;79;21119;-72
2021/04/20 00:18:30;;;;;;;5.72;5.20;;;;;;;16.26;70.68;99471.50;1783374;79;21145;-73
2021/04/20 00:20:58;;;;;;;6.10;5.50;;;;;;;16.29;70.53;99468.91;1784316;79;21157;-74
2021/04/20 00:23:25;;;;;;;6.03;5.42;;;;;;;16.25;70.54;99467.69;1790663;79;22295;-74
2021/04/20 00:25:52;;;;;;;6.28;5.67;;;;;;;16.20;70.62;99460.79;1775294;79;21143;-75
2021/04/20 00:28:27;;;;;;;6.60;5.87;;;;;;;16.17;70.63;99453.16;1782722;79;21140;-74
2021/04/20 00:30:54;;;;;;;5.75;5.17;;;;;;;16.12;70.64;99456.48;1776624;79;21150;-74
2021/04/20 00:33:24;;;;;;;5.58;5.08;;;;;;;16.15;70.62;99453.40;1789856;78;21136;-74
2021/04/20 00:35:51;;;;;;;5.22;4.72;;;;;;;16.21;70.43;99452.55;1783799;79;21187;-74
2021/04/20 00:38:19;;;;;;;5.87;5.37;;;;;;;16.18;70.41;99445.44;1777888;79;21182;-73
2021/04/20 00:40:46;;;;;;;6.67;6.03;;;;;;;16.13;70.45;99440.73;1786999;79;21114;-74
2021/04/20 00:43:13;;;;;;;6.75;5.08;;;;;;;16.10;70.48;99439.80;1784852;79;21142;-73
2021/04/20 00:45:43;;;;;;;5.85;5.30;;;;;;;16.05;70.51;99435.09;1787506;79;21186;-72
2021/04/20 00:48:12;;;;;;;5.62;5.03;;;;;;;16.06;70.47;99435.91;1777781;79;22301;-73
2021/04/20 00:50:40;;;;;;;6.00;4.80;;;;;;;16.13;70.24;99431.35;1785782;79;21143;-72
2021/04/20 00:53:08;;;;;;;6.00;5.45;;;;;;;16.13;70.24;99428.67;1788861;79;21146;-72
2021/04/20 00:55:39;;;;;;;5.83;5.25;;;;;;;16.08;70.28;99427.95;1782117;79;21170;-73
2021/04/20 00:58:10;;;;;;;5.85;5.35;;;;;;;16.04;70.31;99429.41;1782028;79;21158;-73
2021/04/20 01:00:37;;;;;;;5.95;5.33;;;;;;;16.02;70.37;99427.98;1792328;77;23466;-72
2021/04/20 01:03:04;;;;;;;6.30;5.12;;;;;;;15.99;70.32;99423.03;1789341;79;21493;-72
2021/04/20 01:05:36;;;;;;;5.80;4.97;;;;;;;16.01;70.35;99418.28;1786098;79;21107;-72
2021/04/20 01:08:07;;;;;;;7.12;4.97;;;;;;;16.06;70.16;99412.60;1782330;79;21142;-72
2021/04/20 01:10:43;;;;;;;5.78;5.17;;;;;;;16.03;70.11;99406.84;1779019;79;21139;-71
2021/04/20 01:13:11;;;;;;;6.10;5.50;;;;;;;16.00;70.18;99408.09;1771906;79;21365;-71
2021/04/20 01:15:45;;;;;;;5.65;5.08;;;;;;;15.96;70.24;99400.70;1779253;79;21168;-74
2021/04/20 01:18:31;;;;;;;5.90;5.30;;;;;;;15.91;70.31;99399.45;1772957;79;22049;-72
2021/04/20 01:21:05;;;;;;;6.10;5.50;;;;;;;15.90;70.31;99399.69;1772934;79;21627;-73
2021/04/20 01:23:44;;;;;;;5.30;4.80;;;;;;;15.97;70.08;99402.33;1788949;79;21161;-74
2021/04/20 01:26:12;;;;;;;5.60;5.00;;;;;;;15.96;70.07;99399.36;1780257;79;21317;-74
2021/04/20 01:28:42;;;;;;;5.95;5.42;;;;;;;15.91;70.12;99399.45;1784612;79;21194;-73
2021/04/20 01:31:13;;;;;;;4.95;4.50;;;;;;;15.88;70.22;99395.88;1766992;79;21177;-71
2021/04/20 01:33:42;;;;;;;5.97;5.20;;;;;;;15.84;70.28;99390.64;1794657;79;21143;-72
2021/04/20 01:36:12;;;;;;;4.40;3.90;;;;;;;15.81;70.32;99383.02;1781654;79;21130;-72
2021/04/20 01:38:44;;;;;;;5.85;5.22;;;;;;;15.87;70.23;99378.67;1776001;79;22113;-75
2021/04/20 01:41:12;;;;;;;5.10;4.70;;;;;;;15.90;70.10;99372.38;1774957;79;22267;-75
2021/04/20 01:43:39;;;;;;;5.58;5.08;;;;;;;15.88;70.09;99369.62;1772743;79;21573;-74
2021/04/20 01:46:07;;;;;;;5.03;4.53;;;;;;;15.83;70.10;99367.55;1772200;79;21154;-72
2021/04/20 01:48:35;;;;;;;5.30;4.80;;;;;;;15.82;70.20;99365.08;1775683;79;21143;-72
2021/04/20 01:51:06;;;;;;;5.28;4.50;;;;;;;15.78;70.22;99363.37;1776127;79;21386;-72
2021/04/20 01:53:33;;;;;;;4.97;4.30;;;;;;;15.78;70.24;99363.37;1776600;78;21187;-71
2021/04/20 01:56:04;;;;;;;5.55;5.05;;;;;;;15.86;70.01;99357.77;1772033;79;21178;-71
2021/04/20 01:58:34;;;;;;;5.65;5.08;;;;;;;15.87;69.97;99356.72;1778209;79;21197;-71
2021/04/20 02:01:22;;;;;;;5.70;5.10;;;;;;;15.82;70.00;99353.03;1792137;78;21139;-71
2021/04/20 02:03:50;;;;;;;4.47;4.08;;;;;;;15.81;70.07;99358.91;1773973;79;21610;-71
2021/04/20 02:06:19;;;;;;;6.00;5.40;;;;;;;15.76;70.15;99348.03;1772640;79;21123;-71
2021/04/20 02:08:49;;;;;;;4.53;4.12;;;;;;;15.73;70.15;99352.45;1772518;79;21632;-71
2021/04/20 02:11:19;;;;;;;4.53;4.12;;;;;;;15.75;70.17;99346.37;1775444;79;21199;-71
2021/04/20 02:13:47;;;;;;;5.25;4.42;;;;;;;15.82;69.97;99346.33;1787005;79;21159;-72
2021/04/20 02:16:15;;;;;;;5.60;5.10;;;;;;;15.81;69.94;99346.05;1775075;79;21373;-73
2021/04/20 02:18:47;;;;;;;5.37;4.85;;;;;;;15.78;69.98;99345.12;1784851;79;21155;-73
2021/04/20 02:21:17;;;;;;;5.10;4.60;;;;;;;15.75;70.03;99345.55;1776498;79;21617;-72
2021/04/20 02:23:45;;;;;;;4.83;4.35;;;;;;;15.71;70.06;99347.27;1777683;79;21681;-72
2021/04/20 02:26:16;;;;;;;5.33;4.83;;;;;;;15.70;70.09;99348.33;1783548;79;21146;-70
2021/04/20 02:28:44;;;;;;;5.50;5.00;;;;;;;15.78;70.02;99346.45;1784613;79;21199;-70
2021/04/20 02:31:11;;;;;;;5.40;4.47;;;;;;;15.79;69.88;99344.91;1776945;78;21205;-70
2021/04/20 02:33:41;;;;;;;5.25;4.83;;;;;;;15.78;69.88;99346.45;1773958;79;21142;-70
2021/04/20 02:36:09;;;;;;;5.25;4.75;;;;;;;15.73;69.97;99339.88;1741725;79;21174;-71
2021/04/20 02:38:36;;;;;;;5.72;5.15;;;;;;;15.72;69.96;99344.07;1774631;79;21155;-72
2021/04/20 02:41:05;;;;;;;5.03;4.53;;;;;;;15.69;70.04;99340.50;1773904;79;21382;-71
2021/04/20 02:43:34;;;;;;;4.65;3.95;;;;;;;15.70;70.08;99347.48;1789947;79;21166;-72
2021/04/20 02:46:02;;;;;;;5.47;4.97;;;;;;;15.78;69.89;99335.74;1787625;79;21139;-71
2021/04/20 02:48:31;;;;;;;5.10;4.60;;;;;;;15.77;69.83;99338.95;1777957;79;21133;-71
2021/04/20 02:50:59;;;;;;;4.97;4.47;;;;;;;15.75;69.84;99338.86;1746963;79;21174;-71
2021/04/20 02:53:27;;;;;;;5.58;5.08;;;;;;;15.72;69.92;99341.39;1778811;79;21353;-72
2021/04/20 02:55:56;;;;;;;5.08;4.62;;;;;;;15.69;69.96;99336.48;1781892;79;21163;-73
2021/04/20 02:58:27;;;;;;;4.87;4.40;;;;;;;15.67;70.00;99334.53;1774347;79;21825;-72
2021/04/20 03:01:11;;;;;;;5.03;4.53;;;;;;;15.71;69.96;99331.20;1790842;78;21196;-71
2021/04/20 03:03:41;;;;;;;4.60;4.20;;;;;;;15.78;69.80;99331.23;1796534;78;21114;-72
2021/04/20 03:06:08;;;;;;;6.03;5.42;;;;;;;15.75;69.78;99331.64;1787623;78;21198;-72
2021/04/20 03:08:36;;;;;;;5.28;4.70;;;;;;;15.71;69.86;99336.56;1771633;78;21126;-70
2021/04/20 03:11:09;;;;;;;5.37;4.75;;;;;;;15.68;69.93;99336.16;1795114;78;21162;-71
2021/04/20 03:13:37;;;;;;;5.05;4.55;;;;;;;15.66;69.94;99335.55;1794732;78;21155;-71
2021/04/20 03:16:07;;;;;;;5.20;4.70;;;;;;;15.64;70.04;99334.94;1802763;77;21636;-72
2021/04/20 03:18:35;;;;;;;5.25;4.75;;;;;;;15.72;69.94;99332.86;1799081;77;21324;-71
2021/04/20 03:21:12;;;;;;;5.20;4.75;;;;;;;15.74;69.84;99334.00;1785487;78;21168;-72
2021/04/20 03:23:39;;;;;;;4.92;4.40;;;;;;;15.71;69.86;99331.73;1806106;78;21149;-71
2021/04/20 03:26:38;;;;;;;5.78;5.17;;;;;;;15.68;69.86;99330.31;1795862;78;21161;-71
2021/04/20 03:29:08;;;;;;;4.90;4.50;;;;;;;15.66;69.98;99327.52;1803256;78;21155;-71
2021/04/20 03:31:38;;;;;;;5.15;4.65;;;;;;;15.62;70.08;99334.33;1797011;77;21164;-72
2021/04/20 03:34:30;;;;;;;4.70;4.30;;;;;;;15.66;70.04;99332.88;1801380;78;21121;-71
2021/04/20 03:37:01;;;;;;;5.47;4.97;;;;;;;15.75;69.83;99334.32;1797880;77;21131;-72
2021/04/20 03:39:29;;;;;;;6.37;5.10;;;;;;;15.71;69.85;99335.22;1807723;77;21170;-70
2021/04/20 03:42:06;;;;;;;4.87;4.47;;;;;;;15.67;69.94;99334.00;1826148;78;21162;-71
2021/04/20 03:44:41;;;;;;;5.42;4.92;;;;;;;15.65;69.99;99330.72;1793974;78;21332;-71
2021/04/20 03:47:25;;;;;;;5.15;4.25;;;;;;;15.64;70.10;99332.27;1811209;77;21171;-71
2021/04/20 03:49:54;;;;;;;5.28;4.78;;;;;;;15.63;70.18;99330.11;1799883;78;21200;-71
2021/04/20 03:52:26;;;;;;;5.00;4.50;;;;;;;15.72;70.03;99330.19;1806169;78;21185;-70
2021/04/20 03:54:53;;;;;;;4.78;4.25;;;;;;;15.72;70.00;99328.84;1819602;77;21156;-71
2021/04/20 03:57:21;;;;;;;4.80;4.40;;;;;;;15.70;70.03;99328.73;1804850;78;21379;-71
2021/04/20 03:59:48;;;;;;;5.15;4.67;;;;;;;15.69;70.11;99329.78;1813466;77;22194;-70
2021/04/20 04:02:16;;;;;;;5.83;4.40;;;;;;;15.67;70.20;99327.84;1826565;77;21115;-71
2021/04/20 04:04:43;;;;;;;4.67;4.22;;;;;;;15.67;70.25;99323.82;1824964;77;21127;-71
2021/04/20 04:07:13;;;;;;;5.05;4.55;;;;;;;15.71;70.25;99327.19;1809632;77;21231;-72
2021/04/20 04:09:41;;;;;;;5.90;4.90;;;;;;;15.78;70.06;99321.86;1813733;77;21360;-72
2021/04/20 04:12:10;;;;;;;5.22;4.70;;;;;;;15.76;70.10;99315.89;1792982;77;21166;-70
2021/04/20 04:14:38;;;;;;;5.28;4.70;;;;;;;15.76;70.14;99319.06;1802554;78;21146;-70
2021/04/20 04:17:08;;;;;;;5.20;4.72;;;;;;;15.73;70.25;99313.63;1786422;80;21099;-70
2021/04/20 04:19:41;;;;;;;5.28;4.78;;;;;;;15.72;70.29;99306.58;1797537;78;21110;-70
2021/04/20 04:22:13;;;;;;;4.70;4.30;;;;;;;15.73;70.37;99306.93;1794663;78;21226;-70
2021/04/20 04:24:47;;;;;;;5.22;4.28;;;;;;;15.83;70.17;99308.63;1808522;77;21544;-69
2021/04/20 04:27:16;;;;;;;4.72;4.33;;;;;;;15.82;70.15;99305.66;1806412;77;21162;-70
2021/04/20 04:29:45;;;;;;;4.95;4.53;;;;;;;15.81;70.22;99301.33;1785406;77;21190;-71
2021/04/20 04:32:16;;;;;;;4.83;4.33;;;;;;;15.78;70.28;99295.08;1796299;78;21177;-72
2021/04/20 04:34:46;;;;;;;5.33;4.72;;;;;;;15.78;70.33;99295.08;1773215;78;21255;-72
2021/04/20 04:37:15;;;;;;;4.87;4.47;;;;;;;15.78;70.43;99296.41;1825656;78;21191;-72
2021/04/20 04:39:43;;;;;;;4.78;4.28;;;;;;;15.87;70.30;99296.45;1809610;77;21626;-73
2021/04/20 04:42:11;;;;;;;5.55;4.58;;;;;;;15.91;70.23;99300.87;1792134;78;21191;-71
2021/04/20 04:44:39;;;;;;;5.00;4.60;;;;;;;15.89;70.27;99301.59;1814281;77;21170;-71
2021/04/20 04:47:07;;;;;;;4.90;4.42;;;;;;;15.87;70.31;99291.63;1781865;78;21203;-70
2021/04/20 04:49:35;;;;;;;4.70;4.20;;;;;;;15.85;70.38;99293.16;1802185;78;21169;-70
2021/04/20 04:52:04;;;;;;;4.83;4.33;;;;;;;15.85;70.40;99300.39;1805529;77;21135;-71
2021/04/20 04:54:32;;;;;;;5.17;4.67;;;;;;;15.89;70.38;99297.05;1806511;77;21111;-70
2021/04/20 04:57:01;;;;;;;5.20;4.70;;;;;;;15.98;70.19;99296.83;1801280;77;21598;-70
2021/04/20 04:59:28;;;;;;;4.67;4.28;;;;;;;15.96;70.24;99290.88;1804096;78;21410;-70
2021/04/20 05:01:55;;;;;;;4.72;4.25;;;;;;;15.93;70.27;99289.42;1810164;77;21626;-69
2021/04/20 05:04:24;;;;;;;4.83;4.42;;;;;;;15.93;70.39;99290.76;1788346;78;21659;-70
2021/04/20 05:06:53;;;;;;;4.67;4.17;;;;;;;15.92;70.46;99296.64;1803070;77;21170;-70
2021/04/20 05:09:22;;;;;;;5.28;4.70;;;;;;;15.98;70.41;99294.16;1816313;77;21187;-72
2021/04/20 05:11:52;;;;;;;4.90;4.20;;;;;;;16.06;70.27;99288.53;1785687;78;21190;-71
2021/04/20 05:14:22;;;;;;;5.20;4.67;;;;;;;16.05;70.31;99298.44;1810401;77;21568;-71
2021/04/20 05:16:53;;;;;;;5.10;4.65;;;;;;;16.03;70.37;99291.14;1768642;80;21627;-71
2021/04/20 05:19:31;;;;;;;5.33;4.83;;;;;;;16.02;70.49;99285.46;1798492;78;21250;-70
2021/04/20 05:21:59;;;;;;;4.75;4.35;;;;;;;16.03;70.57;99294.31;1788489;79;21092;-71
2021/04/20 05:24:28;;;;;;;5.03;4.53;;;;;;;16.04;70.61;99288.75;1788411;79;21372;-71
2021/04/20 05:26:57;;;;;;;5.65;4.62;;;;;;;16.15;70.48;99284.58;1779081;79;21139;-71
2021/04/20 05:29:24;;;;;;;4.67;4.28;;;;;;;16.15;70.43;99285.91;1798082;78;21145;-71
2021/04/20 05:31:52;;;;;;;5.35;4.85;;;;;;;16.14;70.41;99291.48;1768571;79;21144;-69
2021/04/20 05:34:20;;;;;;;5.67;5.12;;;;;;;16.12;70.47;99287.67;1803672;78;21166;-71
2021/04/20 05:36:49;;;;;;;5.37;4.87;;;;;;;16.11;70.49;99288.73;1798251;78;22277;-70
2021/04/20 05:39:17;;;;;;;5.40;4.90;;;;;;;16.10;70.49;99283.86;1789230;78;21612;-69
2021/04/20 05:41:44;;;;;;;5.55;4.92;;;;;;;16.15;70.53;99285.91;1796187;77;21124;-70
2021/04/20 05:44:13;;;;;;;4.95;4.45;;;;;;;16.25;70.20;99285.44;1787899;79;21151;-71
2021/04/20 05:46:46;;;;;;;6.95;5.70;;;;;;;16.25;70.28;99291.61;1814405;78;21197;-70
2021/04/20 05:49:16;;;;;;;5.00;4.50;;;;;;;16.24;70.23;99286.47;1802350;77;21366;-70
2021/04/20 05:51:43;;;;;;;5.55;4.53;;;;;;;16.22;70.25;99283.99;1799064;77;21191;-70
2021/04/20 05:54:11;;;;;;;4.90;4.40;;;;;;;16.22;70.25;99279.16;1792954;77;21178;-71
2021/04/20 05:56:40;;;;;;;4.80;4.30;;;;;;;16.22;70.25;99282.66;1802360;77;21171;-70
2021/04/20 05:59:08;;;;;;;5.03;4.53;;;;;;;16.30;70.16;99275.72;1788824;78;21179;-71
2021/04/20 06:01:40;;;;;;;4.83;4.42;;;;;;;16.38;70.00;99280.48;1814099;78;21358;-71
2021/04/20 06:04:09;;;;;;;5.22;4.72;;;;;;;16.37;69.99;99281.02;1807139;78;21170;-70
2021/04/20 06:06:39;;;;;;;5.00;4.55;;;;;;;16.36;69.97;99281.23;1808685;78;21127;-70
2021/04/20 06:09:08;;;;;;;5.05;4.53;;;;;;;16.36;69.95;99274.52;1807161;78;22161;-70
2021/04/20 06:11:35;;;;;;;5.15;4.62;;;;;;;16.36;69.95;99271.84;1816228;77;21151;-70
2021/04/20 06:14:03;;;;;;;5.60;4.62;;;;;;;16.38;70.02;99273.78;1799193;78;21379;-70
2021/04/20 06:16:31;;;;;;;4.45;4.05;;;;;;;16.47;69.85;99277.32;1795815;78;21638;-71
2021/04/20 06:18:59;;;;;;;5.15;4.53;;;;;;;16.53;69.71;99266.77;1853654;77;21420;-71
2021/04/20 06:21:27;;;;;;;6.20;4.85;;;;;;;16.53;69.76;99265.44;1794902;78;21130;-69
2021/04/20 06:23:54;;;;;;;5.15;4.70;;;;;;;16.54;69.76;99269.25;1825410;77;21724;-69
2021/04/20 06:26:22;;;;;;;5.45;4.95;;;;;;;16.54;69.80;99273.27;1797749;78;21208;-69
2021/04/20 06:28:49;;;;;;;5.10;4.60;;;;;;;16.55;69.85;99265.51;1809809;78;21136;-69
2021/04/20 06:31:18;;;;;;;5.08;4.60;;;;;;;16.58;69.83;99269.63;1819127;77;21113;-70
2021/04/20 06:33:45;;;;;;;4.75;4.33;;;;;;;16.67;69.71;99265.64;1803954;77;21194;-71
2021/04/20 06:36:14;;;;;;;5.92;4.53;;;;;;;16.71;69.58;99265.50;1818309;77;21115;-70
2021/04/20 06:38:43;;;;;;;4.95;4.47;;;;;;;16.70;69.56;99266.00;1818169;77;21364;-72
2021/04/20 06:41:10;;;;;;;5.25;4.75;;;;;;;16.69;69.57;99261.69;1799122;78;21118;-70
2021/04/20 06:44:12;;;;;;;5.70;5.20;;;;;;;16.69;69.64;99258.20;1811207;77;21556;-71
2021/04/20 06:46:45;;;;;;;5.05;4.65;;;;;;;16.69;69.64;99255.52;1799193;78;21155;-70
2021/04/20 06:49:19;;;;;;;5.08;4.58;;;;;;;16.68;69.79;99260.56;1821415;77;26832;-72
2021/04/20 06:51:50;;;;;;;5.10;4.60;;;;;;;16.76;69.64;99253.58;1825558;77;21369;-70
2021/04/20 06:54:37;;;;;;;4.83;4.37;;;;;;;16.81;69.52;99256.95;1812867;78;21116;-73
2021/04/20 06:57:16;;;;;;;5.60;4.95;;;;;;;16.78;69.51;99248.80;1815243;77;21165;-72
2021/04/20 07:00:08;;;;;;;4.92;4.40;;;;;;;16.78;69.56;99250.67;1827868;78;21209;-72
2021/04/20 07:03:00;;;;;;;4.75;4.35;;;;;;;16.77;69.57;99247.18;1793142;78;21607;-74
2021/04/20 07:05:42;;;;;;;4.30;3.90;;;;;;;16.77;69.62;99247.18;1824657;77;21954;-69
2021/04/20 07:08:43;;;;;;;4.62;4.22;;;;;;;16.78;69.55;99248.80;1819875;78;21347;-76
2021/04/20 07:11:13;;;;;;;4.60;4.20;;;;;;;16.88;69.29;99239.78;1803296;77;21264;-71
2021/04/20 07:13:47;;;;;;;4.70;4.30;;;;;;;16.90;69.27;99247.59;1797982;77;21218;-71
2021/04/20 07:16:27;;;;;;;5.45;4.95;;;;;;;16.88;69.27;99242.47;1800828;78;21157;-69
2021/04/20 07:19:49;;;;;;;4.53;4.12;;;;;;;16.90;69.27;99244.91;1791789;78;21369;-70
2021/04/20 07:22:58;;;;;;;8.78;4.78;;;;;;;16.90;69.33;99238.20;1802325;77;21139;-70
2021/04/20 07:25:50;;;;;;;7.37;4.47;;;;;;;16.90;69.75;99240.88;1803361;78;21175;-68
2021/04/20 07:28:46;;;;;;;6.72;4.90;;;;;;;17.06;69.56;99238.98;1796547;78;21094;-68
2021/04/20 07:31:28;;;;;;;6.03;3.92;;;;;;;17.20;69.41;99234.81;1801149;77;21587;-68
2021/04/20 07:34:21;;;;;;;5.75;3.80;;;;;;;17.21;69.23;99233.25;1807413;78;21372;-69
2021/04/20 07:37:45;;;;;;;6.00;4.90;;;;;;;17.24;69.26;99230.09;1817183;77;21127;-68
2021/04/20 07:40:54;;;;;;;4.67;4.17;;;;;;;17.27;69.17;99227.52;1803922;77;21127;-69
2021/04/20 07:44:00;;;;;;;5.22;3.42;;;;;;;17.28;69.09;99214.37;1813405;77;21140;-65
2021/04/20 07:46:42;;;;;;;5.87;3.75;;;;;;;17.31;68.98;99224.67;1771480;78;21131;-67
2021/04/20 07:49:42;;;;;;;5.92;4.60;;;;;;;17.43;68.73;99222.86;1752571;78;21366;-68
2021/04/20 07:55:33;;;;;;;5.87;4.80;;;;;;;17.55;68.46;99214.05;1796227;77;27896;-69
2021/04/20 07:58:06;;;;;;;6.30;4.47;;;;;;;17.79;67.99;99214.45;1766012;80;21221;-69
2021/04/20 08:00:40;;;;;;;4.97;3.80;;;;;;;18.04;67.07;99208.11;1775531;78;21365;-71
2021/04/20 08:03:21;;;;;;;4.58;3.75;;;;;;;18.00;66.93;99206.94;1722964;82;21247;-71
2021/04/20 08:06:14;;;;;;;4.78;4.00;;;;;;;18.05;66.76;99208.42;1728346;81;21187;-70
2021/04/20 08:08:51;;;;;;;5.72;3.67;;;;;;;18.05;66.61;99201.16;1690357;83;21142;-71
2021/04/20 08:11:44;;;;;;;4.17;3.60;;;;;;;18.02;66.64;99197.61;1719958;82;21469;-71
2021/04/20 08:17:41;;;;;;;4.72;4.15;;;;;;;17.99;66.74;99194.03;1820655;76;22618;-72
2021/04/20 08:20:18;;;;;;;4.62;3.50;;;;;;;17.93;66.79;99196.30;1786801;79;21178;-72
2021/04/20 08:22:45;;;;;;;4.33;3.92;;;;;;;17.90;66.83;99190.02;1782663;78;23530;-67
2021/04/20 08:25:27;;;;;;;5.22;3.95;;;;;;;17.87;66.80;99190.50;1791326;77;21170;-68
2021/04/20 08:28:46;;;;;;;3.95;3.45;;;;;;;17.86;66.88;99195.56;1780906;78;21208;-67
2021/04/20 08:31:37;;;;;;;4.65;3.90;;;;;;;17.94;66.89;99197.11;1773973;79;21112;-68
2021/04/20 08:34:36;;;;;;;3.98;3.58;;;;;;;17.98;66.62;99187.53;1798101;78;22060;-68
2021/04/20 08:37:42;;;;;;;4.65;3.17;;;;;;;17.94;66.69;99187.70;1779983;77;21352;-67
2021/04/20 08:40:27;;;;;;;3.65;3.33;;;;;;;17.87;66.71;99192.66;1769981;79;21178;-68
2021/04/20 08:43:27;;;;;;;3.55;3.25;;;;;;;17.87;66.71;99192.66;1765543;78;21625;-67
2021/04/20 08:46:05;;;;;;;3.95;3.58;;;;;;;17.86;66.68;99183.47;1803027;77;21178;-71
2021/04/20 08:48:59;;;;;;;3.60;3.12;;;;;;;17.84;66.68;99185.05;1770980;78;22128;-72
2021/04/20 08:51:56;;;;;;;3.65;2.95;;;;;;;17.84;66.69;99179.67;1740935;81;21381;-69
2021/04/20 08:55:09;;;;;;;3.60;3.30;;;;;;;17.87;66.74;99187.81;1815103;77;23287;-70
2021/04/20 08:58:02;;;;;;;3.87;3.58;;;;;;;17.87;66.66;99187.81;1794287;79;21138;-68
2021/04/20 09:00:38;;;;;;;3.33;3.02;;;;;;;17.87;66.69;99187.81;1798843;77;21294;-67
2021/04/20 09:03:28;;;;;;;3.42;3.02;;;;;;;17.86;66.68;99185.63;1791803;79;21158;-67
2021/04/20 09:06:06;;;;;;;4.22;3.80;;;;;;;17.85;66.72;99186.70;1740379;79;21183;-69
2021/04/20 09:08:40;;;;;;;3.47;3.17;;;;;;;17.86;66.68;99184.28;1780058;79;21181;-70
2021/04/20 09:11:21;;;;;;;4.70;3.47;;;;;;;17.87;66.65;99182.44;1776854;79;21164;-71
2021/04/20 09:14:09;;;;;;;3.50;3.20;;;;;;;17.94;66.56;99176.42;1797814;79;21513;-71
2021/04/20 09:16:51;;;;;;;3.50;3.02;;;;;;;18.05;66.44;99176.98;1799953;77;21127;-71
2021/04/20 09:19:37;;;;;;;3.02;2.83;;;;;;;18.07;66.47;99178.09;1778808;77;21106;-70
2021/04/20 09:22:29;;;;;;;3.58;3.27;;;;;;;18.06;66.35;99173.78;1783910;77;21153;-69
2021/04/20 09:25:11;;;;;;;4.00;3.40;;;;;;;18.06;66.21;99168.41;1778625;79;21617;-68
2021/04/20 09:28:16;;;;;;;3.47;2.75;;;;;;;18.07;66.10;99170.03;1787449;79;22343;-68
2021/04/20 09:30:54;;;;;;;3.62;2.95;;;;;;;18.08;66.02;99159.59;1779418;79;21141;-69
2021/04/20 09:33:46;;;;;;;3.42;3.12;;;;;;;18.09;66.05;99158.52;1790063;77;21145;-72
2021/04/20 09:36:13;;;;;;;3.10;2.85;;;;;;;18.11;66.01;99156.42;1790816;79;21151;-67
2021/04/20 09:38:46;;;;;;;3.87;3.08;;;;;;;18.14;65.93;99160.51;1782245;79;21122;-73
2021/04/20 09:41:14;;;;;;;3.22;2.92;;;;;;;18.19;65.87;99156.08;1781999;79;22276;-73
2021/04/20 09:44:16;;;;;;;4.53;3.12;;;;;;;18.34;65.61;99162.34;1782569;79;21140;-70
2021/04/20 09:46:54;;;;;;;3.85;3.20;;;;;;;18.37;65.52;99150.30;1777598;79;21138;-69
2021/04/20 09:50:01;;;;;;;3.27;2.90;;;;;;;18.37;65.40;99144.42;1773281;79;21195;-74
2021/04/20 09:52:52;;;;;;;3.15;2.85;;;;;;;18.40;65.26;99145.28;1788386;79;21181;-69
2021/04/20 09:55:28;;;;;;;3.22;2.92;;;;;;;18.42;65.17;99141.02;1783197;79;21196;-70
2021/04/20 09:57:55;;;;;;;3.55;3.00;;;;;;;18.42;65.22;99134.30;1776596;79;21169;-67
2021/04/20 10:00:22;;;;;;;3.10;2.80;;;;;;;18.43;65.21;99130.03;1789442;77;21162;-71
2021/04/20 10:03:13;;;;;;;6.05;5.40;;;;;;;18.44;65.16;99131.66;1786197;79;21325;-72
2021/04/20 10:06:05;;;;;;;5.55;4.10;;;;;;;18.44;65.51;99131.66;1793172;77;21119;-73
2021/04/20 10:09:25;;;;;;;6.22;4.53;;;;;;;18.59;65.53;99129.03;1803579;79;21189;-74
2021/04/20 10:12:30;;;;;;;4.80;3.77;;;;;;;18.70;65.13;99127.36;1788070;79;21222;-67
2021/04/20 10:15:16;;;;;;;5.42;4.60;;;;;;;18.66;65.16;99128.39;1777234;78;21150;-68
2021/04/20 10:18:17;;;;;;;6.67;4.67;;;;;;;18.63;65.23;99120.77;1787063;78;21622;-68
2021/04/20 10:21:11;;;;;;;4.92;4.15;;;;;;;18.61;65.26;99123.70;1791695;79;21109;-68
2021/04/20 10:27:08;;;;;;;5.83;4.62;;;;;;;18.56;65.25;99106.63;1737322;81;21184;-70
2021/04/20 10:30:12;;;;;;;5.87;4.67;;;;;;;18.54;65.41;99122.99;1728106;82;21171;-71
2021/04/20 10:32:45;;;;;;;5.78;5.05;;;;;;;18.53;65.43;99118.69;1714817;83;21196;-70
2021/04/20 10:35:16;;;;;;;;;;;;;;;18.53;65.54;99115.99;1705749;83;21330;-70
2021/04/20 10:37:47;;;;;;;5.35;4.45;;;;;;;18.60;65.46;99109.97;1736594;82;21542;-72
2021/04/20 10:40:32;;;;;;;5.87;4.58;;;;;;;18.64;65.40;99117.86;1733869;82;26501;-71
2021/04/20 10:43:12;;;;;;;6.25;4.28;;;;;;;18.65;65.39;99112.75;1720171;82;22092;-71
2021/04/20 10:45:40;;;;;;;5.28;4.78;;;;;;;18.67;65.39;99109.30;1737042;82;21135;-70
2021/04/20 10:48:09;;;;;;;6.08;4.30;;;;;;;18.73;65.43;99105.38;1733100;82;21179;-70
2021/04/20 10:50:39;;;;;;;6.95;4.90;;;;;;;18.80;65.38;99096.69;1734552;82;21208;-71
2021/04/20 10:53:16;;;;;;;6.75;4.72;;;;;;;18.89;65.23;99102.50;1730835;82;21186;-70
2021/04/20 10:55:50;;;;;;;5.08;4.25;;;;;;;18.97;64.89;99103.50;1718600;83;21630;-67
2021/04/20 10:58:28;;;;;;;6.10;4.53;;;;;;;19.02;64.59;99103.05;1708146;83;21228;-71
2021/04/20 11:00:55;;;;;;;6.72;4.80;;;;;;;19.05;64.38;99101.77;1717826;82;21101;-71
2021/04/20 11:03:34;;;;;;;4.72;3.85;;;;;;;19.06;64.28;99100.70;1733434;82;22293;-71
2021/04/20 11:06:02;;;;;;;7.10;4.28;;;;;;;19.07;64.16;99102.34;1726585;82;21210;-71
2021/04/20 11:08:46;;;;;;;5.15;4.65;;;;;;;19.05;64.12;99102.58;1727128;82;21224;-72
2021/04/20 11:11:21;;;;;;;4.92;4.37;;;;;;;19.04;64.10;99105.00;1730847;82;21204;-72
2021/04/20 11:13:49;;;;;;;5.00;4.20;;;;;;;19.02;64.14;99101.70;1733902;82;21187;-70
2021/04/20 11:16:28;;;;;;;4.53;3.90;;;;;;;19.08;64.08;99103.97;1735761;82;23613;-70
2021/04/20 11:18:59;;;;;;;4.42;4.03;;;;;;;19.17;63.82;99094.45;1720148;81;21177;-70
2021/04/20 11:21:27;;;;;;;5.80;4.30;;;;;;;19.15;63.76;99099.27;1713214;83;21175;-72
2021/04/20 11:24:03;;;;;;;4.87;4.30;;;;;;;19.14;63.82;99098.16;1736041;82;21159;-70
2021/04/20 11:26:39;;;;;;;4.47;4.05;;;;;;;19.13;63.83;99095.19;1735115;82;21174;-71
2021/04/20 11:29:11;;;;;;;4.92;4.42;;;;;;;19.14;63.78;99091.42;1735880;82;21414;-71
2021/04/20 11:31:47;;;;;;;4.97;4.12;;;;;;;19.12;63.76;99091.66;1733808;82;21230;-72
2021/04/20 11:34:21;;;;;;;4.50;3.72;;;;;;;19.14;63.69;99087.38;1721001;83;21525;-71
2021/04/20 11:36:57;;;;;;;3.95;3.55;;;;;;;19.13;63.65;99086.58;1705086;83;21197;-76
2021/04/20 11:39:51;;;;;;;4.35;3.95;;;;;;;19.21;63.52;99085.38;1808845;77;22655;-73
2021/04/20 11:45:12;;;;;;;4.17;3.55;;;;;;;19.24;63.37;99077.64;1794064;79;22733;-71
2021/04/20 11:48:03;;;;;;;5.12;4.33;;;;;;;19.24;63.23;99079.52;1779508;79;21099;-71
2021/04/20 11:50:34;;;;;;;4.62;3.85;;;;;;;19.28;63.10;99078.48;1776083;79;21378;-72
2021/04/20 11:53:05;;;;;;;6.62;3.90;;;;;;;19.35;62.94;99069.73;1782321;79;21186;-73
2021/04/20 11:55:45;;;;;;;4.50;4.10;;;;;;;19.40;62.81;99059.88;1779796;79;21182;-72
2021/04/20 11:58:36;;;;;;;4.22;3.83;;;;;;;19.47;62.60;99065.63;1787530;79;21848;-71
2021/04/20 12:01:17;;;;;;;4.15;3.77;;;;;;;19.51;62.56;99068.12;1791581;79;21159;-72
2021/04/20 12:03:59;;;;;;;3.33;3.02;;;;;;;19.52;62.45;99060.34;1800341;79;22348;-70
2021/04/20 12:06:49;;;;;;;4.22;3.52;;;;;;;19.52;62.41;99061.69;1742147;80;21207;-72
2021/04/20 12:09:25;;;;;;;3.67;3.30;;;;;;;19.52;62.38;99061.69;1796320;79;21615;-70
2021/04/20 12:11:56;;;;;;;3.58;3.25;;;;;;;19.53;62.30;99064.14;1784038;79;21139;-73
2021/04/20 12:14:28;;;;;;;4.17;3.77;;;;;;;19.56;62.28;99056.09;1794834;79;21147;-72
2021/04/20 12:16:59;;;;;;;3.80;3.42;;;;;;;19.58;62.26;99058.83;1793901;79;21395;-69
2021/04/20 12:19:29;;;;;;;4.47;3.83;;;;;;;19.59;62.23;99049.70;1753942;80;21156;-73
2021/04/20 12:21:59;;;;;;;3.35;3.00;;;;;;;19.58;62.21;99043.20;1779392;80;21158;-71
2021/04/20 12:24:27;;;;;;;3.90;3.50;;;;;;;19.59;62.20;99044.31;1774054;79;21560;-73
2021/04/20 12:26:57;;;;;;;6.10;3.40;;;;;;;19.58;62.21;99042.66;1801987;79;22135;-72